createdAt,value
2017-08-01T00:00:28.050Z,0
2017-08-01T00:01:08.551Z,0
2017-08-01T00:01:48.917Z,0
2017-08-01T00:02:29.326Z,0
2017-08-01T00:03:09.891Z,0
2017-08-01T00:03:50.268Z,0
2017-08-01T00:04:30.868Z,0
2017-08-01T00:05:11.236Z,0
2017-08-01T00:05:51.799Z,0
2017-08-01T00:06:32.097Z,0
2017-08-01T00:07:12.577Z,0
2017-08-01T00:07:52.929Z,0
2017-08-01T00:08:33.527Z,0
2017-08-01T00:09:14.166Z,0
2017-08-01T00:09:54.612Z,0
2017-08-01T00:10:34.870Z,0
2017-08-01T00:11:15.256Z,0
2017-08-01T00:11:55.708Z,0
2017-08-01T00:12:36.006Z,0
2017-08-01T00:13:16.464Z,0
2017-08-01T00:13:56.890Z,0
2017-08-01T00:14:37.239Z,0
2017-08-01T00:15:17.869Z,0
2017-08-01T00:15:58.141Z,0
2017-08-01T00:16:38.761Z,0
2017-08-01T00:17:19.287Z,0
2017-08-01T00:17:59.780Z,0
2017-08-01T00:18:40.146Z,0
2017-08-01T00:19:20.745Z,0
2017-08-01T00:20:01.201Z,0
2017-08-01T00:20:41.759Z,0
2017-08-01T00:21:22.404Z,0
2017-08-01T00:22:02.838Z,0
2017-08-01T00:22:43.385Z,0
2017-08-01T00:23:23.819Z,0
2017-08-01T00:24:04.336Z,0
2017-08-01T00:24:44.731Z,0
2017-08-01T00:25:25.210Z,0
2017-08-01T00:26:05.730Z,0
2017-08-01T00:26:46.066Z,0
2017-08-01T00:27:26.561Z,0
2017-08-01T00:28:07.093Z,0
2017-08-01T00:28:47.370Z,0
2017-08-01T00:29:27.852Z,0
2017-08-01T00:30:08.227Z,0
2017-08-01T00:30:48.784Z,0
2017-08-01T00:31:29.123Z,0
2017-08-01T00:32:09.757Z,0
2017-08-01T00:32:50.113Z,0
2017-08-01T00:33:30.692Z,0
2017-08-01T00:34:11.269Z,0
2017-08-01T00:34:51.485Z,0
2017-08-01T00:35:31.941Z,0
2017-08-01T00:36:12.791Z,0
2017-08-01T00:36:54.379Z,0
2017-08-01T00:37:37.819Z,0
2017-08-01T00:39:40.767Z,0
2017-08-01T00:40:21.103Z,0
2017-08-01T00:41:01.525Z,0
2017-08-01T00:41:41.840Z,0
2017-08-01T00:42:22.258Z,0
2017-08-01T00:43:02.695Z,0
2017-08-01T00:43:43.055Z,0
2017-08-01T00:44:23.424Z,0
2017-08-01T00:45:03.842Z,0
2017-08-01T00:45:44.291Z,0
2017-08-01T00:46:24.785Z,0
2017-08-01T00:47:05.291Z,0
2017-08-01T00:47:45.709Z,0
2017-08-01T00:48:26.171Z,0
2017-08-01T00:49:06.502Z,0
2017-08-01T00:49:46.954Z,0
2017-08-01T00:50:27.297Z,0
2017-08-01T00:51:07.770Z,0
2017-08-01T00:51:48.123Z,0
2017-08-01T00:52:28.556Z,0
2017-08-01T00:53:08.940Z,0
2017-08-01T00:53:49.396Z,0
2017-08-01T00:54:29.773Z,0
2017-08-01T00:55:10.138Z,0
2017-08-01T00:55:50.572Z,0
2017-08-01T00:56:31.080Z,0
2017-08-01T00:57:11.413Z,0
2017-08-01T00:57:51.813Z,0
2017-08-01T00:58:32.190Z,0
2017-08-01T00:59:12.626Z,0
2017-08-01T00:59:53.080Z,0
2017-08-01T01:00:33.547Z,0
2017-08-01T01:01:13.909Z,0
2017-08-01T01:01:54.320Z,0
2017-08-01T01:02:34.671Z,0
2017-08-01T01:03:15.198Z,0
2017-08-01T01:03:55.657Z,0
2017-08-01T01:04:36.009Z,0
2017-08-01T01:06:35.710Z,0
2017-08-01T01:07:16.121Z,0
2017-08-01T01:07:56.521Z,0
2017-08-01T01:08:36.928Z,0
2017-08-01T01:09:17.363Z,0
2017-08-01T01:09:57.764Z,0
2017-08-01T01:10:38.197Z,0
2017-08-01T01:11:18.651Z,0
2017-08-01T01:11:58.979Z,0
2017-08-01T01:12:39.364Z,0
2017-08-01T01:13:19.790Z,0
2017-08-01T01:14:00.218Z,0
2017-08-01T01:14:40.592Z,0
2017-08-01T01:15:20.960Z,0
2017-08-01T01:16:01.403Z,0
2017-08-01T01:16:41.852Z,0
2017-08-01T01:17:22.177Z,0
2017-08-01T01:18:02.617Z,0
2017-08-01T01:18:42.976Z,0
2017-08-01T01:19:23.326Z,0
2017-08-01T01:20:03.836Z,0
2017-08-01T01:20:44.269Z,0
2017-08-01T01:21:24.670Z,0
2017-08-01T01:22:05.085Z,0
2017-08-01T01:22:45.512Z,0
2017-08-01T01:23:25.957Z,0
2017-08-01T01:24:06.324Z,0
2017-08-01T01:24:46.762Z,0
2017-08-01T01:25:27.295Z,0
2017-08-01T01:26:07.783Z,0
2017-08-01T01:26:48.149Z,0
2017-08-01T01:27:28.670Z,0
2017-08-01T01:28:09.139Z,0
2017-08-01T01:28:49.486Z,0
2017-08-01T01:29:30.010Z,0
2017-08-01T01:30:10.393Z,0
2017-08-01T01:30:50.837Z,0
2017-08-01T01:31:31.396Z,0
2017-08-01T01:32:11.917Z,0
2017-08-01T01:32:52.431Z,0
2017-08-01T01:33:32.730Z,0
2017-08-01T01:34:13.292Z,0
2017-08-01T01:34:53.620Z,0
2017-08-01T01:35:34.039Z,0
2017-08-01T01:36:14.434Z,0
2017-08-01T01:36:54.964Z,0
2017-08-01T01:37:35.334Z,0
2017-08-01T01:38:15.736Z,0
2017-08-01T01:38:56.163Z,0
2017-08-01T01:39:36.604Z,0
2017-08-01T01:40:17.088Z,0
2017-08-01T01:40:57.418Z,0
2017-08-01T01:41:37.814Z,0
2017-08-01T01:42:18.193Z,0
2017-08-01T01:42:58.576Z,0
2017-08-01T01:43:38.986Z,0
2017-08-01T01:44:19.438Z,0
2017-08-01T01:44:59.808Z,0
2017-08-01T01:45:40.186Z,0
2017-08-01T01:46:20.591Z,0
2017-08-01T01:47:01.005Z,0
2017-08-01T01:47:41.349Z,0
2017-08-01T01:49:38.786Z,0
2017-08-01T01:50:19.171Z,0
2017-08-01T01:50:59.595Z,0
2017-08-01T01:51:39.978Z,0
2017-08-01T01:52:20.430Z,0
2017-08-01T01:53:00.866Z,0
2017-08-01T01:53:41.269Z,0
2017-08-01T01:54:21.621Z,0
2017-08-01T01:55:02.019Z,0
2017-08-01T01:55:42.399Z,0
2017-08-01T01:56:22.815Z,0
2017-08-01T01:57:03.211Z,0
2017-08-01T01:57:43.677Z,0
2017-08-01T01:58:24.114Z,0
2017-08-01T01:59:04.461Z,0
2017-08-01T01:59:44.910Z,0
2017-08-01T02:00:25.305Z,0
2017-08-01T02:01:05.729Z,0
2017-08-01T02:01:46.194Z,0
2017-08-01T02:02:26.562Z,0
2017-08-01T02:03:07.018Z,0
2017-08-01T02:03:47.371Z,0
2017-08-01T02:04:27.787Z,0
2017-08-01T02:05:08.166Z,0
2017-08-01T02:05:48.674Z,0
2017-08-01T02:06:29.208Z,0
2017-08-01T02:07:09.611Z,0
2017-08-01T02:07:50.031Z,0
2017-08-01T02:10:25.102Z,0
2017-08-01T02:11:07.458Z,0
2017-08-01T02:11:47.898Z,0
2017-08-01T02:12:28.338Z,0
2017-08-01T02:13:08.805Z,0
2017-08-01T02:13:49.161Z,0
2017-08-01T02:14:29.602Z,0
2017-08-01T02:15:10.039Z,0
2017-08-01T02:15:50.490Z,0
2017-08-01T02:16:30.882Z,0
2017-08-01T02:17:11.337Z,0
2017-08-01T02:17:51.745Z,0
2017-08-01T02:18:32.109Z,0
2017-08-01T02:19:12.516Z,0
2017-08-01T02:19:52.962Z,0
2017-08-01T02:20:33.428Z,0
2017-08-01T02:21:13.853Z,0
2017-08-01T02:21:54.269Z,0
2017-08-01T02:22:34.744Z,0
2017-08-01T02:23:15.147Z,0
2017-08-01T02:23:55.594Z,0
2017-08-01T02:24:35.936Z,0
2017-08-01T02:25:16.403Z,0
2017-08-01T02:25:56.797Z,0
2017-08-01T02:26:37.196Z,0
2017-08-01T02:27:17.586Z,0
2017-08-01T02:27:57.981Z,0
2017-08-01T02:28:38.463Z,0
2017-08-01T02:29:18.851Z,0
2017-08-01T02:31:52.583Z,0
2017-08-01T02:32:33.026Z,0
2017-08-01T02:33:13.490Z,0
2017-08-01T02:33:53.793Z,0
2017-08-01T02:34:34.230Z,0
2017-08-01T02:35:14.667Z,0
2017-08-01T02:35:55.069Z,0
2017-08-01T02:36:35.509Z,0
2017-08-01T02:37:16.016Z,0
2017-08-01T02:37:56.371Z,0
2017-08-01T02:38:36.840Z,0
2017-08-01T02:39:17.180Z,0
2017-08-01T02:39:57.599Z,0
2017-08-01T02:40:37.977Z,0
2017-08-01T02:41:18.442Z,0
2017-08-01T02:41:58.863Z,0
2017-08-01T02:42:39.240Z,0
2017-08-01T02:43:19.656Z,0
2017-08-01T02:44:00.112Z,0
2017-08-01T02:44:40.480Z,0
2017-08-01T02:45:20.939Z,0
2017-08-01T02:46:01.491Z,0
2017-08-01T02:46:41.843Z,0
2017-08-01T02:47:22.467Z,0
2017-08-01T02:48:02.985Z,0
2017-08-01T02:48:43.467Z,0
2017-08-01T02:49:23.891Z,0
2017-08-01T02:50:04.228Z,0
2017-08-01T02:50:44.699Z,0
2017-08-01T02:51:25.170Z,0
2017-08-01T02:52:05.614Z,0
2017-08-01T02:52:46.005Z,0
2017-08-01T02:53:26.456Z,0
2017-08-01T02:54:06.945Z,0
2017-08-01T02:54:47.366Z,0
2017-08-01T02:55:27.801Z,0
2017-08-01T02:56:08.248Z,0
2017-08-01T02:56:48.657Z,0
2017-08-01T02:57:29.088Z,0
2017-08-01T02:58:09.501Z,0
2017-08-01T02:58:49.915Z,0
2017-08-01T02:59:30.327Z,0
2017-08-01T03:00:10.777Z,0
2017-08-01T03:00:51.152Z,0
2017-08-01T03:01:31.545Z,0
2017-08-01T03:02:11.928Z,0
2017-08-01T03:02:53.293Z,0
2017-08-01T03:03:33.601Z,0
2017-08-01T03:04:13.984Z,0
2017-08-01T03:04:54.414Z,0
2017-08-01T03:05:36.137Z,0
2017-08-01T03:06:16.338Z,0
2017-08-01T03:06:56.757Z,0
2017-08-01T03:07:37.101Z,0
2017-08-01T03:08:17.484Z,0
2017-08-01T03:08:58.237Z,0
2017-08-01T03:09:38.619Z,0
2017-08-01T03:10:18.988Z,0
2017-08-01T03:10:59.559Z,0
2017-08-01T03:11:40.007Z,0
2017-08-01T03:12:20.428Z,0
2017-08-01T03:13:00.862Z,0
2017-08-01T03:13:41.404Z,0
2017-08-01T03:14:21.869Z,0
2017-08-01T03:15:02.211Z,0
2017-08-01T03:15:42.657Z,0
2017-08-01T03:16:23.133Z,0
2017-08-01T03:17:03.760Z,0
2017-08-01T03:17:43.958Z,0
2017-08-01T03:18:24.400Z,0
2017-08-01T03:19:04.817Z,0
2017-08-01T03:19:45.291Z,0
2017-08-01T03:20:25.730Z,0
2017-08-01T03:21:06.091Z,0
2017-08-01T03:21:46.509Z,0
2017-08-01T03:22:26.894Z,0
2017-08-01T03:23:07.349Z,0
2017-08-01T03:23:47.764Z,0
2017-08-01T03:24:28.196Z,0
2017-08-01T03:25:08.604Z,0
2017-08-01T03:31:00.027Z,4
2017-08-01T03:34:29.529Z,8
2017-08-01T03:35:12.504Z,4
2017-08-01T03:35:52.784Z,8
2017-08-01T03:36:33.287Z,8
2017-08-01T03:37:13.659Z,8
2017-08-01T03:37:54.192Z,12
2017-08-01T03:38:34.664Z,8
2017-08-01T03:39:15.005Z,12
2017-08-01T03:39:55.374Z,12
2017-08-01T03:40:35.784Z,16
2017-08-01T03:41:16.181Z,16
2017-08-01T03:41:56.591Z,16
2017-08-01T03:42:36.962Z,24
2017-08-01T03:43:17.369Z,24
2017-08-01T03:43:57.845Z,28
2017-08-01T03:44:38.550Z,28
2017-08-01T03:45:18.996Z,32
2017-08-01T03:45:59.618Z,32
2017-08-01T03:46:39.859Z,36
2017-08-01T03:47:20.242Z,36
2017-08-01T03:48:00.669Z,44
2017-08-01T03:48:41.072Z,44
2017-08-01T03:49:21.482Z,44
2017-08-01T03:50:01.883Z,48
2017-08-01T03:50:42.528Z,52
2017-08-01T03:51:22.779Z,56
2017-08-01T03:52:03.320Z,60
2017-08-01T03:52:43.879Z,64
2017-08-01T03:53:24.246Z,72
2017-08-01T03:54:04.628Z,80
2017-08-01T04:11:47.538Z,556
2017-08-01T04:12:27.746Z,572
2017-08-01T04:13:08.193Z,584
2017-08-01T04:13:48.588Z,592
2017-08-01T04:14:29.154Z,604
2017-08-01T04:15:09.426Z,612
2017-08-01T04:15:49.786Z,616
2017-08-01T04:16:30.228Z,612
2017-08-01T04:17:10.729Z,608
2017-08-01T04:17:51.105Z,604
2017-08-01T04:18:31.661Z,604
2017-08-01T04:19:12.166Z,604
2017-08-01T04:19:52.659Z,612
2017-08-01T04:20:33.006Z,616
2017-08-01T04:21:13.358Z,628
2017-08-01T04:21:53.830Z,640
2017-08-01T04:22:34.253Z,660
2017-08-01T04:23:14.643Z,688
2017-08-01T04:23:55.013Z,712
2017-08-01T04:24:35.494Z,740
2017-08-01T04:25:15.921Z,772
2017-08-01T04:25:56.399Z,800
2017-08-01T04:26:37.052Z,832
2017-08-01T04:27:17.328Z,864
2017-08-01T04:27:57.746Z,888
2017-08-01T04:28:37.985Z,908
2017-08-01T04:29:18.427Z,924
2017-08-01T04:29:58.925Z,940
2017-08-01T04:30:39.386Z,940
2017-08-01T04:31:19.684Z,928
2017-08-01T04:32:00.294Z,920
2017-08-01T04:32:40.642Z,940
2017-08-01T04:33:21.012Z,972
2017-08-01T04:34:01.460Z,1032
2017-08-01T04:34:41.842Z,1068
2017-08-01T04:35:22.542Z,1084
2017-08-01T04:36:02.856Z,1084
2017-08-01T04:36:43.257Z,1072
2017-08-01T04:37:23.657Z,1080
2017-08-01T04:38:04.081Z,1088
2017-08-01T04:38:44.631Z,1100
2017-08-01T04:39:25.161Z,1128
2017-08-01T04:40:05.637Z,1152
2017-08-01T04:40:46.185Z,1136
2017-08-01T04:41:26.615Z,1140
2017-08-01T04:42:07.090Z,1176
2017-08-01T04:42:47.482Z,1220
2017-08-01T04:43:27.887Z,1248
2017-08-01T04:44:08.278Z,1292
2017-08-01T04:44:48.714Z,1356
2017-08-01T04:45:29.679Z,1356
2017-08-01T04:46:10.207Z,1324
2017-08-01T04:46:50.698Z,1292
2017-08-01T04:47:31.021Z,1272
2017-08-01T04:48:11.511Z,1260
2017-08-01T04:48:51.928Z,1256
2017-08-01T04:49:32.374Z,1260
2017-08-01T04:50:12.713Z,1292
2017-08-01T04:50:53.151Z,1348
2017-08-01T04:51:33.568Z,1396
2017-08-01T04:52:14.062Z,1400
2017-08-01T04:52:54.472Z,1376
2017-08-01T04:53:34.917Z,1392
2017-08-01T04:54:15.522Z,1384
2017-08-01T04:54:55.975Z,1368
2017-08-01T04:55:36.359Z,1332
2017-08-01T04:56:16.760Z,1284
2017-08-01T04:56:57.118Z,1232
2017-08-01T04:57:37.587Z,1184
2017-08-01T04:58:18.258Z,1148
2017-08-01T04:58:58.703Z,1140
2017-08-01T04:59:39.265Z,1152
2017-08-01T05:00:19.620Z,1156
2017-08-01T05:00:59.954Z,1176
2017-08-01T05:01:40.398Z,1208
2017-08-01T05:02:20.792Z,1252
2017-08-01T05:03:01.400Z,1272
2017-08-01T05:03:41.945Z,1276
2017-08-01T05:04:22.864Z,1320
2017-08-01T05:05:03.701Z,1372
2017-08-01T05:05:44.142Z,1420
2017-08-01T05:06:24.511Z,1516
2017-08-01T05:07:05.208Z,1604
2017-08-01T05:07:46.175Z,1652
2017-08-01T05:08:26.770Z,1736
2017-08-01T05:09:07.683Z,1824
2017-08-01T05:09:48.327Z,1800
2017-08-01T05:10:29.008Z,1788
2017-08-01T05:11:09.540Z,1856
2017-08-01T05:11:50.475Z,1704
2017-08-01T05:12:30.952Z,1644
2017-08-01T05:13:11.305Z,1636
2017-08-01T05:13:52.948Z,1732
2017-08-01T05:14:33.731Z,1816
2017-08-01T05:15:14.161Z,1904
2017-08-01T05:15:55.314Z,1980
2017-08-01T05:16:35.670Z,2020
2017-08-01T05:17:16.871Z,2028
2017-08-01T05:17:57.322Z,2016
2017-08-01T05:18:37.860Z,2016
2017-08-01T05:19:18.476Z,2036
2017-08-01T05:19:58.901Z,2080
2017-08-01T05:20:39.379Z,2120
2017-08-01T05:21:19.852Z,2160
2017-08-01T05:30:52.303Z,3780
2017-08-01T05:31:36.837Z,3576
2017-08-01T05:32:17.253Z,3372
2017-08-01T05:32:57.638Z,3220
2017-08-01T05:33:38.105Z,3240
2017-08-01T05:34:18.520Z,3208
2017-08-01T05:34:58.993Z,3116
2017-08-01T05:35:39.398Z,3024
2017-08-01T05:36:19.838Z,3128
2017-08-01T05:37:00.292Z,3264
2017-08-01T05:37:40.702Z,3352
2017-08-01T05:38:21.195Z,3376
2017-08-01T05:39:01.612Z,3396
2017-08-01T05:39:42.005Z,3412
2017-08-01T05:40:22.437Z,3396
2017-08-01T05:41:02.896Z,3352
2017-08-01T05:41:43.291Z,3288
2017-08-01T05:43:42.561Z,3136
2017-08-01T05:44:22.725Z,3180
2017-08-01T05:45:03.206Z,3340
2017-08-01T05:45:43.567Z,3588
2017-08-01T05:46:24.010Z,3780
2017-08-01T05:47:04.476Z,3792
2017-08-01T05:47:45.005Z,3640
2017-08-01T05:48:25.470Z,3512
2017-08-01T05:49:06.050Z,3560
2017-08-01T05:49:46.327Z,4128
2017-08-01T05:50:26.736Z,4968
2017-08-01T05:51:07.164Z,4504
2017-08-01T05:51:47.667Z,4052
2017-08-01T05:52:28.075Z,4004
2017-08-01T05:53:08.533Z,4192
2017-08-01T05:53:49.136Z,4676
2017-08-01T05:54:29.559Z,5380
2017-08-01T05:55:10.042Z,5960
2017-08-01T05:55:50.500Z,6172
2017-08-01T05:56:30.991Z,6436
2017-08-01T05:57:11.347Z,7304
2017-08-01T05:57:51.794Z,7904
2017-08-01T05:58:32.187Z,8252
2017-08-01T05:59:12.646Z,8100
2017-08-01T05:59:53.158Z,7940
2017-08-01T06:00:33.493Z,7700
2017-08-01T06:01:13.859Z,7488
2017-08-01T06:01:54.285Z,7568
2017-08-01T06:02:34.784Z,7664
2017-08-01T06:03:15.144Z,7652
2017-08-01T06:03:55.751Z,7552
2017-08-01T06:04:36.224Z,7368
2017-08-01T06:05:16.656Z,7264
2017-08-01T06:05:57.101Z,7424
2017-08-01T06:06:37.557Z,7784
2017-08-01T06:07:18.030Z,8196
2017-08-01T06:07:58.437Z,8380
2017-08-01T06:08:38.917Z,8188
2017-08-01T06:09:19.342Z,7664
2017-08-01T06:09:59.723Z,7068
2017-08-01T06:10:40.119Z,6588
2017-08-01T06:11:20.524Z,6312
2017-08-01T06:12:00.952Z,6240
2017-08-01T06:12:41.444Z,6312
2017-08-01T06:13:21.851Z,6416
2017-08-01T06:14:02.360Z,6512
2017-08-01T06:14:42.751Z,6580
2017-08-01T06:15:23.303Z,6588
2017-08-01T06:16:03.745Z,6592
2017-08-01T06:18:18.135Z,6156
2017-08-01T06:18:58.472Z,5976
2017-08-01T06:19:38.978Z,5812
2017-08-01T06:20:19.602Z,5668
2017-08-01T06:20:59.930Z,5544
2017-08-01T06:21:42.204Z,5416
2017-08-01T06:22:22.644Z,5360
2017-08-01T06:23:03.053Z,5372
2017-08-01T06:23:43.471Z,5416
2017-08-01T06:24:23.915Z,5456
2017-08-01T06:25:04.345Z,5480
2017-08-01T06:25:44.754Z,5508
2017-08-01T06:26:25.242Z,5588
2017-08-01T06:27:05.606Z,5744
2017-08-01T06:27:46.062Z,5972
2017-08-01T06:28:26.429Z,6264
2017-08-01T06:29:06.844Z,6652
2017-08-01T06:29:47.350Z,7096
2017-08-01T06:30:27.749Z,7592
2017-08-01T06:31:08.122Z,8048
2017-08-01T06:31:48.565Z,8452
2017-08-01T06:32:29.038Z,8916
2017-08-01T06:33:09.412Z,9576
2017-08-01T06:33:49.866Z,10736
2017-08-01T06:34:30.232Z,11628
2017-08-01T06:35:10.770Z,12480
2017-08-01T06:35:51.149Z,12176
2017-08-01T06:36:31.795Z,12628
2017-08-01T06:37:12.201Z,12820
2017-08-01T06:37:52.835Z,14856
2017-08-01T06:38:33.143Z,14976
2017-08-01T06:39:13.675Z,14184
2017-08-01T06:39:53.994Z,15748
2017-08-01T06:40:34.416Z,17152
2017-08-01T06:41:14.839Z,16028
2017-08-01T06:41:55.403Z,19328
2017-08-01T06:42:35.917Z,18272
2017-08-01T06:43:16.342Z,16284
2017-08-01T06:43:56.788Z,15076
2017-08-01T06:44:37.305Z,14144
2017-08-01T06:45:17.713Z,13044
2017-08-01T06:45:58.151Z,12272
2017-08-01T06:46:38.819Z,11936
2017-08-01T06:47:19.254Z,11380
2017-08-01T06:48:01.726Z,10832
2017-08-01T06:48:42.130Z,10512
2017-08-01T06:49:22.720Z,10260
2017-08-01T06:50:03.112Z,10028
2017-08-01T06:50:43.457Z,9752
2017-08-01T06:51:24.180Z,9432
2017-08-01T06:52:04.896Z,9232
2017-08-01T06:52:45.458Z,9136
2017-08-01T06:53:25.935Z,9024
2017-08-01T06:57:05.039Z,8428
2017-08-01T06:57:45.493Z,8656
2017-08-01T06:58:26.125Z,8980
2017-08-01T06:59:07.068Z,9416
2017-08-01T06:59:48.208Z,9872
2017-08-01T07:00:28.621Z,10332
2017-08-01T07:01:09.061Z,10712
2017-08-01T07:01:49.712Z,11044
2017-08-01T07:02:30.061Z,11264
2017-08-01T07:03:11.174Z,11340
2017-08-01T07:03:52.051Z,11296
2017-08-01T07:04:32.604Z,11160
2017-08-01T07:05:13.158Z,10948
2017-08-01T07:05:54.819Z,10756
2017-08-01T07:06:35.228Z,10672
2017-08-01T07:07:15.939Z,10716
2017-08-01T07:07:56.428Z,10928
2017-08-01T07:08:37.261Z,11276
2017-08-01T07:09:18.088Z,11672
2017-08-01T07:09:59.152Z,12076
2017-08-01T07:10:39.733Z,12248
2017-08-01T07:11:20.064Z,12232
2017-08-01T07:12:00.680Z,11964
2017-08-01T07:16:55.837Z,8648
2017-08-01T07:26:17.430Z,7212
2017-08-01T07:26:58.011Z,7420
2017-08-01T07:27:38.313Z,7620
2017-08-01T07:32:08.197Z,8892
2017-08-01T07:33:22.942Z,9084
2017-08-01T07:38:06.085Z,7148
2017-08-01T07:38:45.934Z,6568
2017-08-01T07:39:26.501Z,6060
2017-08-01T07:40:06.877Z,5628
2017-08-01T07:40:47.323Z,5272
2017-08-01T07:41:27.806Z,4956
2017-08-01T07:42:08.296Z,4652
2017-08-01T07:42:48.728Z,4408
2017-08-01T07:43:29.326Z,4264
2017-08-01T07:44:09.909Z,4244
2017-08-01T07:44:50.590Z,4280
2017-08-01T07:45:31.116Z,4300
2017-08-01T07:46:11.658Z,4284
2017-08-01T07:46:52.548Z,4244
2017-08-01T07:47:32.914Z,4192
2017-08-01T07:48:13.268Z,4152
2017-08-01T07:48:53.723Z,4148
2017-08-01T07:49:34.102Z,4188
2017-08-01T07:51:54.978Z,4436
2017-08-01T07:52:34.997Z,4488
2017-08-01T07:53:15.439Z,4540
2017-08-01T07:55:44.535Z,4652
2017-08-01T07:56:24.901Z,4680
2017-08-01T07:57:05.327Z,4704
2017-08-01T07:57:45.779Z,4732
2017-08-01T07:58:26.308Z,4724
2017-08-01T07:59:06.642Z,4656
2017-08-01T07:59:47.375Z,4536
2017-08-01T08:00:28.326Z,4340
2017-08-01T08:01:08.903Z,4152
2017-08-01T08:01:50.639Z,3928
2017-08-01T08:02:31.501Z,3732
2017-08-01T08:03:12.011Z,3596
2017-08-01T08:03:52.611Z,3484
2017-08-01T08:06:00.240Z,3288
2017-08-01T08:08:13.275Z,3292
2017-08-01T08:09:07.206Z,3344
2017-08-01T08:10:05.979Z,3416
2017-08-01T08:11:04.966Z,3504
2017-08-01T08:12:12.282Z,3564
2017-08-01T08:13:22.802Z,3576
2017-08-01T08:14:24.609Z,3568
2017-08-01T08:15:36.308Z,3508
2017-08-01T08:18:37.490Z,3536
2017-08-01T08:19:17.900Z,3544
2017-08-01T08:19:58.461Z,3532
2017-08-01T08:20:45.556Z,3516
2017-08-01T08:21:41.611Z,3476
2017-08-01T08:22:24.727Z,3432
2017-08-01T08:23:05.441Z,3392
2017-08-01T08:23:46.005Z,3368
2017-08-01T08:24:26.557Z,3344
2017-08-01T08:25:06.869Z,3308
2017-08-01T08:25:48.996Z,3296
2017-08-01T08:26:28.678Z,3312
2017-08-01T08:27:09.195Z,3388
2017-08-01T08:27:49.682Z,3428
2017-08-01T08:28:30.310Z,3484
2017-08-01T08:29:10.737Z,3556
2017-08-01T08:29:51.131Z,3656
2017-08-01T08:30:31.672Z,3804
2017-08-01T08:31:12.191Z,3964
2017-08-01T08:31:52.569Z,4136
2017-08-01T08:32:33.018Z,4316
2017-08-01T08:33:13.456Z,4548
2017-08-01T08:33:53.944Z,4856
2017-08-01T08:34:34.434Z,5252
2017-08-01T08:35:14.792Z,5700
2017-08-01T08:35:55.236Z,6124
2017-08-01T08:36:35.663Z,6496
2017-08-01T08:37:16.031Z,6836
2017-08-01T08:37:56.712Z,7172
2017-08-01T08:38:37.305Z,7616
2017-08-01T08:39:17.887Z,8216
2017-08-01T08:39:58.362Z,8984
2017-08-01T08:40:38.833Z,9948
2017-08-01T08:41:19.312Z,10928
2017-08-01T08:41:59.734Z,11652
2017-08-01T08:42:40.243Z,11940
2017-08-01T08:43:20.600Z,11620
2017-08-01T08:44:01.054Z,10972
2017-08-01T08:44:41.419Z,9924
2017-08-01T08:45:21.936Z,8896
2017-08-01T08:46:02.388Z,8036
2017-08-01T08:46:42.752Z,7472
2017-08-01T08:47:23.267Z,7188
2017-08-01T08:48:03.784Z,7140
2017-08-01T08:48:44.287Z,7248
2017-08-01T08:49:24.725Z,7384
2017-08-01T08:50:05.447Z,7272
2017-08-01T08:50:45.995Z,6800
2017-08-01T08:51:26.643Z,6380
2017-08-01T08:52:06.964Z,6152
2017-08-01T08:52:47.450Z,5992
2017-08-01T08:53:29.552Z,6044
2017-08-01T08:54:10.127Z,6228
2017-08-01T08:54:50.441Z,6424
2017-08-01T08:55:31.305Z,6728
2017-08-01T08:56:11.646Z,7264
2017-08-01T08:56:52.111Z,8236
2017-08-01T08:57:32.549Z,9548
2017-08-01T08:58:13.078Z,11336
2017-08-01T08:58:53.540Z,13296
2017-08-01T08:59:34.076Z,14928
2017-08-01T09:00:14.547Z,16480
2017-08-01T09:00:55.040Z,18304
2017-08-01T09:01:36.113Z,20000
2017-08-01T09:02:16.440Z,22432
2017-08-01T09:02:58.331Z,25760
2017-08-01T09:03:38.711Z,29728
2017-08-01T09:04:19.587Z,34304
2017-08-01T09:05:00.048Z,36736
2017-08-01T09:05:40.739Z,38880
2017-08-01T09:06:20.913Z,35744
2017-08-01T09:07:01.393Z,29792
2017-08-01T09:07:41.814Z,24352
2017-08-01T09:08:22.335Z,21152
2017-08-01T09:09:02.620Z,18848
2017-08-01T09:09:43.322Z,16896
2017-08-01T09:10:23.664Z,15872
2017-08-01T09:11:04.935Z,15524
2017-08-01T09:11:45.392Z,15344
2017-08-01T09:12:25.925Z,14616
2017-08-01T09:13:06.561Z,14336
2017-08-01T09:13:47.186Z,14132
2017-08-01T09:14:27.645Z,13980
2017-08-01T09:15:08.173Z,13780
2017-08-01T09:15:49.847Z,13720
2017-08-01T09:16:30.310Z,13832
2017-08-01T09:17:10.739Z,14252
2017-08-01T09:17:51.125Z,15224
2017-08-01T09:18:31.678Z,17088
2017-08-01T09:19:12.165Z,21568
2017-08-01T09:19:52.648Z,21088
2017-08-01T09:20:33.126Z,20320
2017-08-01T09:21:13.716Z,20000
2017-08-01T09:21:54.204Z,19712
2017-08-01T09:22:34.785Z,19936
2017-08-01T09:23:15.047Z,21696
2017-08-01T09:23:55.543Z,26272
2017-08-01T09:24:36.060Z,30208
2017-08-01T09:25:16.453Z,28576
2017-08-01T09:25:56.958Z,27776
2017-08-01T09:26:37.555Z,25920
2017-08-01T09:27:17.975Z,31968
2017-08-01T09:27:58.770Z,40480
2017-08-01T09:28:39.137Z,38144
2017-08-01T09:29:19.562Z,33472
2017-08-01T09:30:00.146Z,30432
2017-08-01T09:30:40.536Z,29856
2017-08-01T09:31:21.087Z,30944
2017-08-01T09:32:01.348Z,32256
2017-08-01T09:32:41.764Z,35328
2017-08-01T09:33:22.397Z,31872
2017-08-01T09:34:02.902Z,35136
2017-08-01T09:34:43.154Z,32416
2017-08-01T09:35:23.601Z,32192
2017-08-01T09:36:04.118Z,32416
2017-08-01T09:36:44.569Z,28480
2017-08-01T09:37:24.922Z,25600
2017-08-01T09:38:05.364Z,25824
2017-08-01T09:38:45.783Z,26016
2017-08-01T09:39:26.273Z,26656
2017-08-01T09:40:06.731Z,29920
2017-08-01T09:40:47.166Z,30752
2017-08-01T09:41:27.571Z,40064
2017-08-01T09:42:08.029Z,47328
2017-08-01T09:42:48.563Z,35104
2017-08-01T09:43:29.017Z,36416
2017-08-01T09:44:09.506Z,43808
2017-08-01T09:44:49.946Z,42272
2017-08-01T09:45:30.462Z,75616
2017-08-01T09:46:10.900Z,75456
2017-08-01T09:46:51.393Z,73280
2017-08-01T09:47:31.708Z,92992
2017-08-01T09:48:12.509Z,85248
2017-08-01T09:48:52.939Z,68384
2017-08-01T09:49:33.312Z,47392
2017-08-01T09:50:13.729Z,46784
2017-08-01T09:50:54.164Z,50208
2017-08-01T09:51:34.640Z,63680
2017-08-01T09:52:14.984Z,63488
2017-08-01T09:52:55.457Z,56960
2017-08-01T09:53:35.787Z,38688
2017-08-01T09:54:16.270Z,36448
2017-08-01T09:54:56.617Z,31648
2017-08-01T09:55:37.056Z,30048
2017-08-01T09:56:17.482Z,28480
2017-08-01T09:56:57.827Z,30304
2017-08-01T09:57:38.316Z,31392
2017-08-01T09:58:18.751Z,38144
2017-08-01T10:00:50.410Z,34912
2017-08-01T10:01:30.661Z,32832
2017-08-01T10:02:11.112Z,34080
2017-08-01T10:02:51.703Z,38464
2017-08-01T10:03:32.068Z,40800
2017-08-01T10:04:12.603Z,42368
2017-08-01T10:04:53.055Z,40864
2017-08-01T10:05:33.520Z,58816
2017-08-01T10:06:13.955Z,48704
2017-08-01T10:06:54.292Z,78240
2017-08-01T10:07:34.759Z,48256
2017-08-01T10:08:15.256Z,57920
2017-08-01T10:08:55.808Z,85952
2017-08-01T10:09:36.174Z,78432
2017-08-01T10:10:16.785Z,96800
2017-08-01T10:10:57.409Z,56608
2017-08-01T10:11:37.760Z,107904
2017-08-01T10:12:18.204Z,51520
2017-08-01T10:12:58.639Z,38784
2017-08-01T10:13:39.045Z,31424
2017-08-01T10:14:19.674Z,30656
2017-08-01T10:14:59.937Z,28032
2017-08-01T10:15:40.339Z,24800
2017-08-01T10:16:20.832Z,24512
2017-08-01T10:17:01.380Z,22880
2017-08-01T10:17:41.890Z,22080
2017-08-01T10:18:22.273Z,23264
2017-08-01T10:20:41.261Z,41472
2017-08-01T10:21:21.689Z,61728
2017-08-01T10:22:02.208Z,38176
2017-08-01T10:22:42.742Z,36832
2017-08-01T10:23:23.135Z,40416
2017-08-01T10:24:03.588Z,65856
2017-08-01T10:28:24.472Z,29184
2017-08-01T10:29:05.224Z,21888
2017-08-01T10:29:46.466Z,19200
2017-08-01T10:30:26.359Z,18464
2017-08-01T10:31:06.783Z,19168
2017-08-01T10:31:47.269Z,21152
2017-08-01T10:32:27.624Z,21760
2017-08-01T10:33:08.048Z,21280
2017-08-01T10:33:48.496Z,22400
2017-08-01T10:34:28.896Z,23392
2017-08-01T10:35:09.330Z,23232
2017-08-01T10:35:49.705Z,24384
2017-08-01T10:36:30.142Z,26048
2017-08-01T10:37:10.655Z,26656
2017-08-01T10:37:51.169Z,24832
2017-08-01T10:38:31.591Z,23168
2017-08-01T10:39:11.994Z,23648
2017-08-01T10:39:52.423Z,25504
2017-08-01T10:40:32.827Z,28128
2017-08-01T10:41:13.403Z,29056
2017-08-01T10:41:53.665Z,26880
2017-08-01T10:42:34.046Z,23328
2017-08-01T10:43:14.564Z,21696
2017-08-01T10:47:26.030Z,32096
2017-08-01T10:48:06.416Z,39264